Time;durP1;ratioP1;P1;durP2;ratioP2;P2;SDS_P1;SDS_P2;PMS_P1;PMS_P2;Temp;Humidity;BMP_temperature;BMP_pressure;BME280_temperature;BME280_humidity;BME280_pressure;Samples;Min_cycle;Max_cycle;Signal;HPM_P1;HPM_P2
2022/05/17 00:02:05;;;;;;;34.95;5.15;;;13.80;99.90;;;;;;5023127;28;20072;-65
2022/05/17 00:04:32;;;;;;;33.65;5.00;;;13.80;99.90;;;;;;5023991;28;20021;-65
2022/05/17 00:06:58;;;;;;;29.95;5.25;;;13.70;99.90;;;;;;5008742;28;20030;-65
2022/05/17 00:09:24;;;;;;;30.80;5.15;;;13.70;99.90;;;;;;5027304;28;20025;-65
2022/05/17 00:11:50;;;;;;;33.75;5.90;;;13.70;99.90;;;;;;5027418;28;20332;-65
2022/05/17 00:14:17;;;;;;;38.72;5.47;;;13.70;99.90;;;;;;5025404;28;20026;-65
2022/05/17 00:16:45;;;;;;;31.45;5.45;;;13.70;99.90;;;;;;5027199;28;20029;-65
2022/05/17 00:19:12;;;;;;;36.72;5.50;;;13.70;99.90;;;;;;5024551;28;20216;-65
2022/05/17 00:21:38;;;;;;;27.27;5.35;;;13.70;99.90;;;;;;5026038;28;20030;-66
2022/05/17 00:24:05;;;;;;;32.85;5.40;;;13.60;99.90;;;;;;5026443;28;20085;-65
2022/05/17 00:26:34;;;;;;;35.72;6.22;;;13.70;99.90;;;;;;5027237;28;20026;-65
2022/05/17 00:29:00;;;;;;;30.77;5.85;;;13.60;99.90;;;;;;5026760;28;20045;-65
2022/05/17 00:31:26;;;;;;;35.75;6.25;;;13.70;99.90;;;;;;5025456;28;20344;-65
2022/05/17 00:33:53;;;;;;;33.80;5.28;;;13.70;99.90;;;;;;5025206;28;20072;-65
2022/05/17 00:36:19;;;;;;;37.53;6.00;;;13.70;99.90;;;;;;5026562;28;20060;-65
2022/05/17 00:38:45;;;;;;;32.40;6.38;;;13.70;99.90;;;;;;5026793;28;20022;-65
2022/05/17 00:41:11;;;;;;;45.70;7.95;;;13.60;99.90;;;;;;5026627;28;20040;-65
2022/05/17 00:47:01;;;;;;;37.08;5.72;;;13.60;99.90;;;;;;5025192;28;20045;-65
2022/05/17 00:49:36;;;;;;;36.78;6.03;;;13.60;99.90;;;;;;5025463;28;20018;-65
2022/05/17 00:52:07;;;;;;;36.83;6.25;;;13.60;99.90;;;;;;5025414;28;20022;-65
2022/05/17 00:54:34;;;;;;;40.95;6.80;;;13.50;99.90;;;;;;5026069;28;20209;-64
2022/05/17 00:57:09;;;;;;;35.28;7.13;;;13.50;99.90;;;;;;5025334;28;20033;-64
2022/05/17 00:59:37;;;;;;;41.72;7.07;;;13.50;99.90;;;;;;5026048;28;20056;-65
2022/05/17 01:02:07;;;;;;;43.17;7.03;;;13.60;99.90;;;;;;5026105;28;20030;-65
2022/05/17 01:04:34;;;;;;;36.50;6.60;;;13.60;99.90;;;;;;5025700;28;20024;-64
2022/05/17 01:07:06;;;;;;;40.88;7.40;;;13.60;99.90;;;;;;5008805;28;20026;-64
2022/05/17 01:09:32;;;;;;;44.55;7.22;;;13.60;99.90;;;;;;5026251;28;20248;-64
2022/05/17 01:11:58;;;;;;;36.55;7.45;;;13.50;99.90;;;;;;5024804;28;20100;-65
2022/05/17 01:17:10;;;;;;;37.55;6.90;;;13.60;99.90;;;;;;5024290;28;20053;-65
2022/05/17 01:19:39;;;;;;;35.95;6.78;;;13.50;99.90;;;;;;5024566;28;20045;-65
2022/05/17 01:22:05;;;;;;;35.83;5.95;;;13.50;99.90;;;;;;5024742;28;20026;-64
2022/05/17 01:24:31;;;;;;;33.97;6.55;;;13.40;99.90;;;;;;5025438;28;20095;-65
2022/05/17 01:27:04;;;;;;;41.85;6.60;;;13.50;99.90;;;;;;5025868;28;20216;-65
2022/05/17 01:29:38;;;;;;;43.13;7.00;;;13.50;99.90;;;;;;5024652;28;20027;-65
2022/05/17 01:32:04;;;;;;;39.75;6.75;;;13.50;99.90;;;;;;5025148;28;20301;-65
2022/05/17 01:34:30;;;;;;;33.67;6.78;;;13.50;99.90;;;;;;5025124;28;20075;-65
2022/05/17 01:36:56;;;;;;;36.03;6.20;;;13.50;99.90;;;;;;5024522;28;20050;-65
2022/05/17 01:39:21;;;;;;;36.00;7.20;;;13.50;99.90;;;;;;5025437;28;20093;-65
2022/05/17 01:41:47;;;;;;;50.80;7.20;;;13.50;99.90;;;;;;5025687;28;20100;-64
2022/05/17 01:44:13;;;;;;;38.72;7.53;;;13.40;99.90;;;;;;5024854;28;20026;-65
2022/05/17 01:46:38;;;;;;;42.33;8.10;;;13.30;99.90;;;;;;5024092;28;20022;-64
2022/05/17 01:49:04;;;;;;;44.60;7.90;;;13.20;99.90;;;;;;5025417;28;20026;-65
2022/05/17 01:51:29;;;;;;;38.35;7.72;;;13.20;99.90;;;;;;5025415;28;20052;-64
2022/05/17 01:53:55;;;;;;;41.33;7.93;;;13.20;99.90;;;;;;5025226;28;20228;-65
2022/05/17 01:56:21;;;;;;;41.20;8.05;;;13.10;99.90;;;;;;5025032;28;20081;-64
2022/05/17 01:58:46;;;;;;;39.08;8.85;;;13.10;99.90;;;;;;5024802;28;20113;-65
2022/05/17 02:01:12;;;;;;;43.15;7.82;;;13.10;99.90;;;;;;5024688;28;20037;-65
2022/05/17 02:03:39;;;;;;;56.45;8.93;;;13.10;99.90;;;;;;5024071;28;20107;-65
2022/05/17 02:06:04;;;;;;;49.70;8.57;;;13.10;99.90;;;;;;5012469;28;20263;-64
2022/05/17 02:08:30;;;;;;;42.97;8.60;;;13.10;99.90;;;;;;5020106;28;20025;-65
2022/05/17 02:10:56;;;;;;;41.35;8.77;;;13.10;99.90;;;;;;5024957;28;20037;-64
2022/05/17 02:13:22;;;;;;;41.00;8.30;;;13.10;99.90;;;;;;5024434;28;20103;-64
2022/05/17 02:15:48;;;;;;;43.75;9.25;;;13.10;99.90;;;;;;5024657;28;20026;-64
2022/05/17 02:18:13;;;;;;;37.78;8.38;;;13.10;99.90;;;;;;5024918;28;20033;-65
2022/05/17 02:20:39;;;;;;;44.15;8.90;;;13.10;99.90;;;;;;5023123;28;20041;-65
2022/05/17 02:23:07;;;;;;;41.33;7.80;;;13.10;99.90;;;;;;5024491;28;20029;-65
2022/05/17 02:25:33;;;;;;;41.28;7.85;;;13.10;99.90;;;;;;5024526;28;20045;-64
2022/05/17 02:27:59;;;;;;;37.88;7.63;;;13.10;99.90;;;;;;5024216;28;20018;-65
2022/05/17 02:30:25;;;;;;;33.08;7.43;;;13.10;99.90;;;;;;5024523;28;20025;-65
2022/05/17 02:32:50;;;;;;;38.72;8.10;;;13.00;99.90;;;;;;5023880;28;20205;-65
2022/05/17 02:35:16;;;;;;;34.10;6.93;;;13.00;99.90;;;;;;5024051;28;20061;-65
2022/05/17 02:37:42;;;;;;;32.80;7.95;;;13.00;99.90;;;;;;5024603;28;20026;-65
2022/05/17 02:40:09;;;;;;;37.97;7.18;;;13.00;99.90;;;;;;5024358;28;20309;-65
2022/05/17 02:42:34;;;;;;;38.97;8.05;;;13.00;99.90;;;;;;5024265;28;20025;-65
2022/05/17 02:45:00;;;;;;;32.15;7.10;;;13.00;99.90;;;;;;5024095;28;20205;-65
2022/05/17 02:47:26;;;;;;;37.80;7.05;;;12.90;99.90;;;;;;5023087;28;20025;-64
2022/05/17 02:49:52;;;;;;;36.33;6.63;;;12.90;99.90;;;;;;5024267;28;20017;-65
2022/05/17 02:52:17;;;;;;;32.05;5.80;;;12.90;99.90;;;;;;5024400;28;20245;-65
2022/05/17 02:54:43;;;;;;;34.28;7.55;;;12.90;99.90;;;;;;5024135;28;20088;-64
2022/05/17 02:57:09;;;;;;;38.58;6.70;;;12.90;99.90;;;;;;5006168;28;20061;-64
2022/05/17 02:59:35;;;;;;;45.13;8.15;;;12.90;99.90;;;;;;5022941;28;20336;-65
2022/05/17 03:02:02;;;;;;;38.30;7.10;;;12.80;99.90;;;;;;5021867;28;20305;-64
2022/05/17 03:04:28;;;;;;;38.00;7.15;;;12.90;99.90;;;;;;5005785;28;20325;-64
2022/05/17 03:06:54;;;;;;;33.15;6.40;;;12.90;99.90;;;;;;5005165;28;20343;-65
2022/05/17 03:09:20;;;;;;;33.83;6.30;;;12.90;99.90;;;;;;5023377;28;20053;-64
2022/05/17 03:11:46;;;;;;;38.60;6.65;;;13.00;99.90;;;;;;5023028;28;20089;-65
2022/05/17 03:14:16;;;;;;;35.95;6.82;;;13.00;99.90;;;;;;5023131;28;20261;-65
2022/05/17 03:16:43;;;;;;;28.88;6.18;;;12.90;99.90;;;;;;5022516;28;20029;-65
2022/05/17 03:19:10;;;;;;;38.90;7.30;;;12.90;99.90;;;;;;5005740;28;20189;-64
2022/05/17 03:21:36;;;;;;;29.58;6.97;;;12.90;99.90;;;;;;5020344;28;20064;-65
2022/05/17 03:24:02;;;;;;;25.35;5.97;;;12.80;99.90;;;;;;5022923;28;20085;-64
2022/05/17 03:26:29;;;;;;;31.35;6.15;;;12.80;99.90;;;;;;5022885;28;20042;-64
2022/05/17 03:28:58;;;;;;;35.05;6.72;;;12.80;99.90;;;;;;5022837;28;20292;-65
2022/05/17 03:31:24;;;;;;;31.77;6.78;;;12.80;99.90;;;;;;5021726;28;20026;-65
2022/05/17 03:33:50;;;;;;;37.75;7.00;;;12.80;99.90;;;;;;5021707;28;20029;-65
2022/05/17 03:36:16;;;;;;;35.50;7.25;;;12.80;99.90;;;;;;5022607;28;20069;-64
2022/05/17 03:38:41;;;;;;;37.63;7.35;;;12.80;99.90;;;;;;5022433;28;20083;-64
2022/05/17 03:41:07;;;;;;;28.10;7.07;;;12.80;99.90;;;;;;5026398;28;20053;-65
2022/05/17 03:43:33;;;;;;;34.15;8.05;;;12.80;99.90;;;;;;5024611;28;20097;-64
2022/05/17 03:45:59;;;;;;;35.72;8.57;;;12.80;99.90;;;;;;5024812;28;20018;-65
2022/05/17 03:48:26;;;;;;;37.15;8.25;;;12.80;99.90;;;;;;5026099;28;20033;-65
2022/05/17 03:50:52;;;;;;;36.33;8.65;;;12.80;99.90;;;;;;5025069;28;20293;-65
2022/05/17 03:53:18;;;;;;;40.13;10.63;;;12.90;99.90;;;;;;5026288;28;20068;-65
2022/05/17 03:55:44;;;;;;;39.85;9.93;;;12.90;99.90;;;;;;5026106;28;20194;-65
2022/05/17 03:58:10;;;;;;;36.47;9.27;;;13.00;99.90;;;;;;4997815;28;796978;-65
2022/05/17 04:00:36;;;;;;;29.55;9.25;;;13.00;99.90;;;;;;5026734;28;20033;-65
2022/05/17 04:03:02;;;;;;;34.10;8.70;;;13.10;99.90;;;;;;5025941;28;20092;-65
2022/05/17 04:05:28;;;;;;;30.45;9.50;;;13.10;99.90;;;;;;5018673;28;20031;-65
2022/05/17 04:07:54;;;;;;;38.00;10.40;;;13.10;99.90;;;;;;5016828;28;20350;-65
2022/05/17 04:10:20;;;;;;;39.58;10.48;;;13.20;99.90;;;;;;5027257;28;20025;-65
2022/05/17 04:12:46;;;;;;;39.58;9.88;;;13.20;99.90;;;;;;5027032;28;20033;-65
2022/05/17 04:15:17;;;;;;;34.45;9.63;;;13.20;99.90;;;;;;5027422;28;20065;-65
2022/05/17 04:17:43;;;;;;;34.17;9.25;;;13.10;99.90;;;;;;5025743;28;20029;-65
2022/05/17 04:20:12;;;;;;;37.50;11.77;;;13.20;99.90;;;;;;5026120;28;20072;-65
2022/05/17 04:22:42;;;;;;;32.13;9.68;;;13.20;99.90;;;;;;5024439;28;20189;-65
2022/05/17 04:25:07;;;;;;;35.15;9.70;;;13.10;99.90;;;;;;5027047;28;20029;-65
2022/05/17 04:27:33;;;;;;;34.63;10.02;;;13.10;99.90;;;;;;5026250;28;20025;-65
2022/05/17 04:29:59;;;;;;;34.17;9.43;;;13.20;99.90;;;;;;5025854;28;20022;-65
2022/05/17 04:32:24;;;;;;;43.45;10.75;;;13.10;99.90;;;;;;5026566;28;20021;-65
2022/05/17 04:34:50;;;;;;;37.45;10.98;;;13.10;99.90;;;;;;5025457;28;20029;-65
2022/05/17 04:37:16;;;;;;;31.65;10.07;;;13.10;99.90;;;;;;5026389;28;20021;-65
2022/05/17 04:39:41;;;;;;;30.63;10.15;;;13.10;99.90;;;;;;5025633;28;20025;-65
2022/05/17 04:42:07;;;;;;;33.97;10.32;;;13.10;99.90;;;;;;5026641;28;20053;-65
2022/05/17 04:44:33;;;;;;;34.45;10.80;;;13.20;99.90;;;;;;5026168;28;20022;-65
2022/05/17 04:46:59;;;;;;;32.55;9.88;;;13.20;99.90;;;;;;5026558;28;20018;-66
2022/05/17 04:49:24;;;;;;;33.80;10.82;;;13.20;99.90;;;;;;5025944;28;20025;-65
2022/05/17 04:51:52;;;;;;;32.05;11.30;;;13.10;99.90;;;;;;5026454;28;20088;-65
2022/05/17 04:54:18;;;;;;;28.17;10.25;;;13.20;99.90;;;;;;5026077;28;20279;-65
2022/05/17 04:56:44;;;;;;;33.20;11.82;;;13.20;99.90;;;;;;5025115;28;20297;-65
2022/05/17 04:59:10;;;;;;;28.98;10.07;;;13.20;99.90;;;;;;5025673;28;20065;-65
2022/05/17 05:01:36;;;;;;;32.72;10.02;;;13.30;99.90;;;;;;5025857;28;20089;-65
2022/05/17 05:04:02;;;;;;;29.73;11.20;;;13.30;99.90;;;;;;5026230;28;20033;-65
2022/05/17 05:06:28;;;;;;;39.55;11.60;;;13.30;99.90;;;;;;5009575;28;20026;-65
2022/05/17 05:08:54;;;;;;;36.88;10.32;;;13.30;99.90;;;;;;5022965;28;20351;-65
2022/05/17 05:11:19;;;;;;;130.48;17.92;;;13.40;99.90;;;;;;5024946;28;20089;-65
2022/05/17 05:13:45;;;;;;;51.60;12.25;;;13.40;99.90;;;;;;5026006;28;20309;-65
2022/05/17 05:16:12;;;;;;;44.85;10.88;;;13.50;99.90;;;;;;5025036;28;20034;-64
2022/05/17 05:18:38;;;;;;;34.47;11.82;;;13.60;99.90;;;;;;5023919;28;20037;-64
2022/05/17 05:21:09;;;;;;;31.48;12.20;;;13.60;99.90;;;;;;5025236;28;20096;-64
2022/05/17 05:23:35;;;;;;;36.53;11.23;;;13.60;99.90;;;;;;5022142;28;20034;-64
2022/05/17 05:26:02;;;;;;;33.28;10.38;;;13.70;99.90;;;;;;5025558;28;20065;-64
2022/05/17 05:28:28;;;;;;;37.85;10.60;;;13.70;99.90;;;;;;5024054;28;20030;-64
2022/05/17 05:30:55;;;;;;;32.38;9.98;;;13.80;99.90;;;;;;5025488;28;20069;-66
2022/05/17 05:33:21;;;;;;;34.97;10.27;;;13.80;99.90;;;;;;5025018;28;20021;-65
2022/05/17 05:35:47;;;;;;;33.08;10.52;;;13.80;99.90;;;;;;5025206;28;20021;-66
2022/05/17 05:38:13;;;;;;;25.88;9.55;;;13.90;99.90;;;;;;5025335;28;20077;-64
2022/05/17 05:40:39;;;;;;;35.17;10.30;;;14.00;99.90;;;;;;5025326;28;20057;-64
2022/05/17 05:43:05;;;;;;;31.45;10.35;;;14.10;99.90;;;;;;5025203;28;20037;-64
2022/05/17 05:45:31;;;;;;;30.10;10.60;;;14.20;99.90;;;;;;5024688;28;20225;-65
2022/05/17 05:47:57;;;;;;;24.00;9.38;;;14.10;99.90;;;;;;5025195;28;20092;-65
2022/05/17 05:50:23;;;;;;;19.05;9.02;;;14.10;99.90;;;;;;5025001;28;20037;-65
2022/05/17 05:52:49;;;;;;;25.40;9.00;;;14.10;99.90;;;;;;5025037;28;20026;-65
2022/05/17 05:55:20;;;;;;;21.30;8.30;;;14.10;99.90;;;;;;5024034;28;20018;-65
2022/05/17 05:57:47;;;;;;;20.17;8.15;;;14.10;99.90;;;;;;5023397;28;20060;-65
2022/05/17 06:00:14;;;;;;;32.53;9.13;;;14.20;99.90;;;;;;5023544;28;20209;-65
2022/05/17 06:02:39;;;;;;;16.48;8.45;;;14.20;99.90;;;;;;5023775;28;20030;-65
2022/05/17 06:05:06;;;;;;;21.50;8.65;;;14.20;99.90;;;;;;5020882;28;20037;-65
2022/05/17 06:07:32;;;;;;;20.33;8.70;;;14.20;99.90;;;;;;5011805;28;20033;-65
2022/05/17 06:09:58;;;;;;;24.33;9.30;;;14.20;99.90;;;;;;5024400;28;20029;-65
2022/05/17 06:12:23;;;;;;;20.02;8.05;;;14.10;99.90;;;;;;5023454;28;20026;-65
2022/05/17 06:14:49;;;;;;;33.47;9.27;;;14.10;99.90;;;;;;5023707;28;20029;-65
2022/05/17 06:17:15;;;;;;;16.30;8.45;;;14.10;99.90;;;;;;5024188;28;20036;-65
2022/05/17 06:19:40;;;;;;;21.40;9.35;;;14.20;99.90;;;;;;5024242;28;20354;-65
2022/05/17 06:22:06;;;;;;;22.52;8.95;;;14.10;99.90;;;;;;5024708;28;20404;-65
2022/05/17 06:24:32;;;;;;;25.95;9.45;;;14.10;99.90;;;;;;5021818;28;20022;-66
2022/05/17 06:26:57;;;;;;;23.02;9.00;;;14.10;99.90;;;;;;5024582;28;20049;-65
2022/05/17 06:29:23;;;;;;;22.10;8.50;;;14.10;99.90;;;;;;5024267;28;20026;-65
2022/05/17 06:31:49;;;;;;;22.15;8.48;;;14.10;99.90;;;;;;5024377;28;20088;-65
2022/05/17 06:34:14;;;;;;;25.65;8.68;;;14.10;99.90;;;;;;5024063;28;20053;-65
2022/05/17 06:36:40;;;;;;;24.38;8.13;;;14.20;99.90;;;;;;5023753;28;20022;-66
2022/05/17 06:39:08;;;;;;;19.58;8.70;;;14.30;99.90;;;;;;5023867;28;20205;-65
2022/05/17 06:41:34;;;;;;;18.70;7.68;;;14.30;99.90;;;;;;5024135;28;20030;-65
2022/05/17 06:44:01;;;;;;;23.83;8.20;;;14.30;99.90;;;;;;5024153;28;20029;-65
2022/05/17 06:46:26;;;;;;;25.95;7.53;;;14.40;99.90;;;;;;5023565;28;20309;-65
2022/05/17 06:48:52;;;;;;;23.83;8.00;;;14.40;99.90;;;;;;5024096;28;20066;-66
2022/05/17 06:51:17;;;;;;;26.58;8.02;;;14.40;99.90;;;;;;5023606;28;20032;-65
2022/05/17 06:53:43;;;;;;;21.30;7.28;;;14.40;99.90;;;;;;5024079;28;20025;-65
2022/05/17 06:56:09;;;;;;;20.67;7.45;;;14.50;99.90;;;;;;5023951;28;20057;-65
2022/05/17 06:58:35;;;;;;;18.63;7.75;;;14.60;99.90;;;;;;5023606;28;20095;-66
2022/05/17 07:01:00;;;;;;;26.90;7.53;;;14.70;99.90;;;;;;5023348;28;20022;-66
2022/05/17 07:03:26;;;;;;;30.30;7.60;;;14.80;99.90;;;;;;5023502;28;20029;-66
2022/05/17 07:05:52;;;;;;;33.22;8.35;;;14.90;99.90;;;;;;5012338;28;20030;-65
2022/05/17 07:08:18;;;;;;;13.80;6.43;;;15.10;99.90;;;;;;5017102;28;20040;-66
2022/05/17 07:13:29;;;;;;;14.07;5.18;;;15.30;99.90;;;;;;5008804;28;20331;-67
2022/05/17 07:15:56;;;;;;;18.27;6.28;;;15.50;99.90;;;;;;5017057;28;20025;-68
2022/05/17 07:18:24;;;;;;;15.77;6.03;;;15.60;99.90;;;;;;5021593;28;20040;-69
2022/05/17 07:20:51;;;;;;;15.77;5.40;;;15.70;99.90;;;;;;5005392;28;20194;-68
2022/05/17 07:23:18;;;;;;;18.25;5.10;;;15.80;99.90;;;;;;5021782;28;20222;-66
2022/05/17 07:25:45;;;;;;;12.65;4.18;;;16.00;99.90;;;;;;5021400;28;20032;-67
2022/05/17 07:28:16;;;;;;;20.98;4.65;;;16.10;99.90;;;;;;5020696;28;20068;-67
2022/05/17 07:30:43;;;;;;;15.05;4.60;;;16.10;99.90;;;;;;5021702;28;20099;-68
2022/05/17 07:33:08;;;;;;;14.63;4.10;;;16.20;99.90;;;;;;5022726;28;20033;-68
2022/05/17 07:35:34;;;;;;;13.70;4.85;;;16.20;99.90;;;;;;5022886;28;20085;-68
2022/05/17 07:38:02;;;;;;;16.48;5.30;;;16.20;99.90;;;;;;5023323;28;20021;-67
2022/05/17 07:40:29;;;;;;;12.55;4.38;;;16.30;99.90;;;;;;5005586;28;20032;-66
2022/05/17 07:42:55;;;;;;;17.33;4.82;;;16.40;99.90;;;;;;5022130;28;20340;-69
2022/05/17 07:45:21;;;;;;;15.18;4.25;;;16.60;99.90;;;;;;5005571;28;20101;-66
2022/05/17 07:47:47;;;;;;;22.25;2.72;;;16.70;99.90;;;;;;5021930;28;20026;-67
2022/05/17 07:50:13;;;;;;;36.22;3.55;;;16.90;99.90;;;;;;5021482;28;20030;-66
2022/05/17 07:52:39;;;;;;;28.25;4.03;;;17.20;99.90;;;;;;5022169;28;20017;-68
2022/05/17 07:55:06;;;;;;;12.13;2.28;;;17.50;99.90;;;;;;5021572;28;20022;-67
2022/05/17 07:57:31;;;;;;;16.20;2.40;;;17.80;98.90;;;;;;5023044;28;20022;-69
2022/05/17 07:59:59;;;;;;;14.85;2.38;;;18.10;97.50;;;;;;5022894;28;20221;-69
2022/05/17 08:02:25;;;;;;;12.55;2.30;;;18.30;96.80;;;;;;5020783;28;20033;-67
2022/05/17 08:04:51;;;;;;;12.02;2.20;;;18.40;96.00;;;;;;5020399;28;20026;-68
2022/05/17 08:07:16;;;;;;;11.15;2.00;;;18.50;95.30;;;;;;5022879;28;20018;-67
2022/05/17 08:09:42;;;;;;;8.70;1.92;;;18.60;95.00;;;;;;5021342;28;20080;-67
2022/05/17 08:12:09;;;;;;;14.32;2.28;;;18.70;94.80;;;;;;5021434;28;20064;-66
2022/05/17 08:14:37;;;;;;;18.90;2.25;;;18.90;94.80;;;;;;4989189;28;20029;-66
2022/05/17 08:17:04;;;;;;;13.82;2.30;;;19.00;94.10;;;;;;5021975;28;20025;-66
2022/05/17 08:19:30;;;;;;;14.55;2.63;;;19.00;94.10;;;;;;5022289;28;20089;-68
2022/05/17 08:21:56;;;;;;;10.63;1.92;;;19.10;94.50;;;;;;5022718;28;20221;-68
2022/05/17 08:24:22;;;;;;;13.82;2.30;;;19.20;93.90;;;;;;5020215;28;20320;-66
2022/05/17 08:29:33;;;;;;;14.00;1.80;;;19.40;94.10;;;;;;5012144;28;20072;-66
2022/05/17 08:34:44;;;;;;;8.10;2.00;;;19.60;93.50;;;;;;5024705;28;20029;-67
2022/05/17 08:37:10;;;;;;;10.50;2.08;;;19.60;93.60;;;;;;5024635;28;20213;-64
2022/05/17 08:39:35;;;;;;;11.75;2.00;;;19.50;93.70;;;;;;5024958;28;20036;-66
2022/05/17 08:42:11;;;;;;;14.13;2.13;;;19.60;93.80;;;;;;5024374;28;20085;-67
2022/05/17 08:44:49;;;;;;;14.07;2.03;;;19.70;93.90;;;;;;5025976;28;20296;-67
2022/05/17 08:47:26;;;;;;;11.50;2.03;;;19.70;93.60;;;;;;5025819;28;20049;-68
2022/05/17 08:50:00;;;;;;;11.70;1.90;;;19.80;93.50;;;;;;5008376;28;20140;-67
2022/05/17 08:52:28;;;;;;;12.75;2.25;;;20.00;92.90;;;;;;5008238;28;20029;-67
2022/05/17 08:55:01;;;;;;;11.02;2.03;;;20.10;92.50;;;;;;5024981;28;20057;-65
2022/05/17 08:57:38;;;;;;;8.95;2.22;;;20.30;92.40;;;;;;5024848;28;20026;-67
2022/05/17 09:00:26;;;;;;;12.90;2.60;;;20.40;92.00;;;;;;5005815;28;20105;-67
2022/05/17 09:02:58;;;;;;;11.20;1.98;;;20.60;91.90;;;;;;5004018;28;20026;-68
2022/05/17 09:05:48;;;;;;;9.40;1.75;;;20.80;91.50;;;;;;5013001;28;20028;-68
2022/05/17 09:08:32;;;;;;;9.75;2.08;;;21.00;91.20;;;;;;5023825;28;20113;-68
2022/05/17 09:11:08;;;;;;;13.40;2.22;;;21.20;91.00;;;;;;5023743;28;20026;-67
2022/05/17 09:13:59;;;;;;;13.50;2.10;;;21.30;90.30;;;;;;5008688;28;20041;-68
2022/05/17 09:16:27;;;;;;;12.85;2.05;;;21.40;90.10;;;;;;5024674;28;20093;-67
2022/05/17 09:18:53;;;;;;;12.30;2.50;;;21.20;90.20;;;;;;5024658;28;20026;-67
2022/05/17 09:21:39;;;;;;;14.23;2.58;;;21.20;90.50;;;;;;5025454;28;20334;-67
2022/05/17 09:24:12;;;;;;;13.80;3.15;;;21.40;90.20;;;;;;4988271;28;20027;-68
2022/05/17 09:26:40;;;;;;;13.55;2.03;;;21.50;90.60;;;;;;5003172;28;20033;-67
2022/05/17 09:29:30;;;;;;;13.90;2.20;;;21.60;90.20;;;;;;5004740;28;20022;-67
2022/05/17 09:32:01;;;;;;;16.73;2.20;;;21.40;90.30;;;;;;5004204;28;20034;-68
2022/05/17 09:34:33;;;;;;;15.27;2.22;;;21.40;90.20;;;;;;4988199;28;20224;-67
2022/05/17 09:37:09;;;;;;;8.75;2.05;;;21.50;90.20;;;;;;5003018;28;20049;-66
2022/05/17 09:39:35;;;;;;;20.50;2.50;;;21.60;90.10;;;;;;5013780;28;20030;-67
2022/05/17 09:42:05;;;;;;;11.38;2.10;;;21.60;90.10;;;;;;5023485;28;20309;-67
2022/05/17 09:44:33;;;;;;;10.27;1.98;;;21.50;90.20;;;;;;5023732;28;20264;-67
2022/05/17 09:47:03;;;;;;;11.73;2.38;;;21.30;90.30;;;;;;5023417;28;20033;-68
2022/05/17 09:52:34;;;;;;;11.63;2.00;;;21.40;90.30;;;;;;4990360;28;20101;-67
2022/05/17 09:55:22;;;;;;;12.38;1.83;;;21.60;90.00;;;;;;5005469;28;20034;-70
2022/05/17 09:58:05;;;;;;;12.93;2.38;;;21.70;89.80;;;;;;5003918;28;20057;-68
2022/05/17 10:00:50;;;;;;;14.60;2.33;;;21.80;89.50;;;;;;5003993;28;20068;-67
2022/05/17 10:03:35;;;;;;;15.15;2.50;;;22.20;88.40;;;;;;5012955;28;20025;-68
2022/05/17 10:06:05;;;;;;;14.57;2.40;;;22.40;88.70;;;;;;5024235;28;20025;-66
2022/05/17 10:08:37;;;;;;;16.52;2.10;;;22.60;88.10;;;;;;5024418;28;20021;-67
2022/05/17 10:11:17;;;;;;;15.23;2.25;;;22.70;87.00;;;;;;5018535;28;20048;-69
2022/05/17 10:14:07;;;;;;;44.38;4.63;;;22.40;88.00;;;;;;4975060;28;20037;-68
2022/05/17 10:16:57;;;;;;;8.85;2.13;;;22.60;87.10;;;;;;4990673;28;20306;-67
2022/05/17 10:19:48;;;;;;;10.75;2.20;;;22.70;86.80;;;;;;5023212;28;20022;-68
2022/05/17 10:22:40;;;;;;;11.48;1.92;;;22.80;84.60;;;;;;5023157;28;20032;-68
2022/05/17 10:25:21;;;;;;;29.38;3.25;;;22.80;85.60;;;;;;5010264;28;20041;-68
2022/05/17 10:27:57;;;;;;;61.83;5.40;;;22.90;86.30;;;;;;5020899;28;20125;-68
2022/05/17 10:30:50;;;;;;;61.15;6.35;;;22.70;86.30;;;;;;5006976;28;20331;-68
2022/05/17 10:33:28;;;;;;;12.48;2.00;;;22.80;86.70;;;;;;5022265;28;20021;-68
2022/05/17 10:36:01;;;;;;;47.25;4.68;;;22.80;85.40;;;;;;5022917;28;20096;-69
2022/05/17 10:38:32;;;;;;;14.35;2.88;;;22.90;84.50;;;;;;5022951;28;20022;-66
2022/05/17 10:40:58;;;;;;;21.90;3.05;;;22.80;84.30;;;;;;5006036;28;20301;-66
2022/05/17 10:43:29;;;;;;;17.13;2.90;;;22.90;84.60;;;;;;5005765;28;20335;-68
2022/05/17 10:46:00;;;;;;;67.13;7.30;;;23.00;84.40;;;;;;5022213;28;20030;-65
2022/05/17 10:48:46;;;;;;;;;;;22.80;85.00;;;;;;5023009;28;20026;-67
2022/05/17 10:51:37;;;;;;;10.15;1.90;;;22.80;85.30;;;;;;5022658;28;19924;-67
2022/05/17 10:54:42;;;;;;;100.45;10.95;;;22.90;84.40;;;;;;5022446;28;20332;-68
2022/05/17 10:57:33;;;;;;;19.48;2.55;;;23.10;85.00;;;;;;5011867;28;20030;-68
2022/05/17 11:00:18;;;;;;;29.98;4.28;;;22.90;85.00;;;;;;5002205;28;20046;-68
2022/05/17 11:03:24;;;;;;;18.98;2.38;;;23.20;84.60;;;;;;5002556;28;20034;-69
2022/05/17 11:06:29;;;;;;;25.30;3.50;;;23.60;84.50;;;;;;4995557;28;20030;-68
2022/05/17 11:09:21;;;;;;;12.93;2.47;;;23.90;84.10;;;;;;5020731;28;20032;-69
2022/05/17 11:12:09;;;;;;;24.88;3.85;;;23.60;83.40;;;;;;5009525;28;20037;-69
2022/05/17 11:14:47;;;;;;;21.02;2.92;;;23.40;83.80;;;;;;5008988;28;20096;-68
2022/05/17 11:17:36;;;;;;;17.00;3.00;;;23.40;83.60;;;;;;5022943;28;20143;-68
2022/05/17 11:20:21;;;;;;;12.65;3.22;;;23.20;84.60;;;;;;5002723;28;20089;-69
2022/05/17 11:23:26;;;;;;;16.48;2.20;;;22.90;85.00;;;;;;5003030;28;20237;-69
2022/05/17 11:26:19;;;;;;;12.77;2.10;;;22.80;85.50;;;;;;4988995;28;20445;-68
2022/05/17 11:29:18;;;;;;;10.70;2.08;;;22.80;85.20;;;;;;5003926;28;20037;-69
2022/05/17 11:32:24;;;;;;;17.00;2.58;;;22.90;85.00;;;;;;5009513;28;20051;-70
2022/05/17 11:34:53;;;;;;;10.00;1.95;;;23.00;84.00;;;;;;5011297;28;20029;-68
2022/05/17 11:37:44;;;;;;;9.52;1.70;;;23.10;84.00;;;;;;5022257;28;20265;-69
2022/05/17 11:40:11;;;;;;;;;;;23.10;83.40;;;;;;5009534;28;20045;-68
2022/05/17 11:43:40;;;;;;;12.02;2.33;;;23.30;83.80;;;;;;5022477;28;20212;-67
2022/05/17 11:45:45;;;;;;;11.93;2.00;;;23.40;83.80;;;;;;5021926;28;20017;-70
2022/05/17 11:48:17;;;;;;;30.90;3.92;;;23.50;83.80;;;;;;5005682;28;20327;-69
2022/05/17 11:51:01;;;;;;;12.25;2.40;;;23.80;83.00;;;;;;4989483;28;20344;-69
2022/05/17 11:53:33;;;;;;;36.25;4.80;;;23.90;82.60;;;;;;5021678;28;20192;-69
2022/05/17 11:56:36;;;;;;;12.45;2.22;;;24.00;82.90;;;;;;5005702;28;20069;-69
2022/05/17 11:59:38;;;;;;;19.05;2.97;;;24.10;82.50;;;;;;5010587;28;20042;-69
2022/05/17 12:02:08;;;;;;;;;;;24.00;82.50;;;;;;5026637;28;20075;-69
2022/05/17 12:04:37;;;;;;;18.80;2.50;;;23.80;84.10;;;;;;5026676;28;19917;-68
2022/05/17 12:07:26;;;;;;;10.52;2.05;;;23.70;83.80;;;;;;5010057;28;20046;-68
2022/05/17 12:09:55;;;;;;;12.50;2.13;;;23.50;84.40;;;;;;5025924;28;20026;-68
2022/05/17 12:12:50;;;;;;;13.75;2.25;;;23.60;84.20;;;;;;5009393;28;20053;-69
2022/05/17 12:15:55;;;;;;;17.15;2.75;;;24.00;84.10;;;;;;5026230;28;20032;-67
2022/05/17 12:18:43;;;;;;;24.45;3.35;;;24.40;83.20;;;;;;5026044;28;20233;-70
2022/05/17 12:21:49;;;;;;;88.47;8.68;;;24.40;82.10;;;;;;5009858;28;20033;-69
2022/05/17 12:24:43;;;;;;;14.18;2.10;;;24.30;82.50;;;;;;5011748;28;20228;-69
2022/05/17 12:27:30;;;;;;;10.15;2.00;;;24.10;82.90;;;;;;5026256;28;20034;-69
2022/05/17 12:33:33;;;;;;;24.77;2.90;;;24.10;81.40;;;;;;5002937;28;20021;-69
2022/05/17 12:36:23;;;;;;;18.15;2.47;;;24.20;82.00;;;;;;5011285;28;20028;-69
2022/05/17 12:44:56;;;;;;;15.88;2.60;;;24.20;81.60;;;;;;5012327;28;20022;-69
2022/05/17 12:47:37;;;;;;;12.40;2.33;;;24.50;80.90;;;;;;5009185;28;20190;-68
2022/05/17 12:50:04;;;;;;;17.08;2.90;;;24.20;81.10;;;;;;5026851;28;20021;-68
2022/05/17 12:52:34;;;;;;;11.93;2.22;;;24.00;80.60;;;;;;5026377;28;20048;-69
2022/05/17 12:55:18;;;;;;;19.05;3.22;;;23.90;80.80;;;;;;5025248;28;20049;-68
2022/05/17 12:57:47;;;;;;;9.05;1.95;;;24.10;81.10;;;;;;5026110;28;20022;-68
2022/05/17 13:00:30;;;;;;;10.82;1.95;;;24.10;81.00;;;;;;5024713;28;20029;-69
2022/05/17 13:03:01;;;;;;;9.82;1.65;;;24.50;80.90;;;;;;5008613;28;20030;-70
2022/05/17 13:05:49;;;;;;;8.63;1.90;;;24.50;79.60;;;;;;5018700;28;20325;-69
2022/05/17 13:08:23;;;;;;;10.98;1.98;;;24.70;79.50;;;;;;5012894;28;20032;-68
2022/05/17 13:11:13;;;;;;;11.30;2.10;;;24.70;79.20;;;;;;5008494;28;20029;-68
2022/05/17 13:13:41;;;;;;;8.02;1.73;;;24.80;78.30;;;;;;5024673;28;20327;-68
2022/05/17 13:16:13;;;;;;;6.32;1.77;;;24.70;77.90;;;;;;5024768;28;20026;-70
2022/05/17 13:18:40;;;;;;;;;;;24.80;78.40;;;;;;5025301;28;20068;-67
2022/05/17 13:21:16;;;;;;;8.60;1.65;;;24.70;78.40;;;;;;5025105;28;20039;-68
2022/05/17 13:23:46;;;;;;;8.73;1.67;;;24.60;78.00;;;;;;5024413;28;20022;-68
2022/05/17 13:26:13;;;;;;;14.30;1.90;;;24.00;78.80;;;;;;5023559;28;20036;-70